sensor_id;sensor_type;location;lat;lon;timestamp;temperature;humidity
34829;DHT22;21042;47.620;12.188;2023-05-20T00:00:44;9.60;99.90
34829;DHT22;21042;47.620;12.188;2023-05-20T00:03:15;9.70;99.90
34829;DHT22;21042;47.620;12.188;2023-05-20T00:05:42;9.70;99.90
34829;DHT22;21042;47.620;12.188;2023-05-20T00:08:09;9.70;99.90
34829;DHT22;21042;47.620;12.188;2023-05-20T00:10:37;9.70;99.90
34829;DHT22;21042;47.620;12.188;2023-05-20T00:13:04;9.70;99.90
34829;DHT22;21042;47.620;12.188;2023-05-20T00:15:33;9.70;99.90
34829;DHT22;21042;47.620;12.188;2023-05-20T00:18:01;9.70;99.90
34829;DHT22;21042;47.620;12.188;2023-05-20T00:20:29;9.70;99.90
34829;DHT22;21042;47.620;12.188;2023-05-20T00:22:56;9.70;99.90
34829;DHT22;21042;47.620;12.188;2023-05-20T00:25:23;9.80;99.90
34829;DHT22;21042;47.620;12.188;2023-05-20T00:27:49;9.70;99.90
34829;DHT22;21042;47.620;12.188;2023-05-20T00:30:16;9.70;99.90
34829;DHT22;21042;47.620;12.188;2023-05-20T00:32:43;9.60;99.90
34829;DHT22;21042;47.620;12.188;2023-05-20T00:35:10;9.60;99.90
34829;DHT22;21042;47.620;12.188;2023-05-20T00:37:37;9.60;99.90
34829;DHT22;21042;47.620;12.188;2023-05-20T00:40:04;9.60;99.90
34829;DHT22;21042;47.620;12.188;2023-05-20T00:42:31;9.50;99.90
34829;DHT22;21042;47.620;12.188;2023-05-20T00:44:59;9.50;99.90
34829;DHT22;21042;47.620;12.188;2023-05-20T00:47:29;9.50;99.90
34829;DHT22;21042;47.620;12.188;2023-05-20T00:49:57;9.30;99.90
34829;DHT22;21042;47.620;12.188;2023-05-20T00:52:26;9.20;99.90
34829;DHT22;21042;47.620;12.188;2023-05-20T00:54:55;9.10;99.90
34829;DHT22;21042;47.620;12.188;2023-05-20T00:57:23;9.10;99.90
34829;DHT22;21042;47.620;12.188;2023-05-20T00:59:50;9.10;99.90
34829;DHT22;21042;47.620;12.188;2023-05-20T01:02:17;9.10;99.90
34829;DHT22;21042;47.620;12.188;2023-05-20T01:04:45;9.10;99.90
34829;DHT22;21042;47.620;12.188;2023-05-20T01:07:15;9.10;99.90
34829;DHT22;21042;47.620;12.188;2023-05-20T01:09:43;9.00;99.90
34829;DHT22;21042;47.620;12.188;2023-05-20T01:12:24;9.00;99.90
34829;DHT22;21042;47.620;12.188;2023-05-20T01:15:02;9.00;99.90
34829;DHT22;21042;47.620;12.188;2023-05-20T01:17:31;9.10;99.90
34829;DHT22;21042;47.620;12.188;2023-05-20T01:20:01;9.10;99.90
34829;DHT22;21042;47.620;12.188;2023-05-20T01:22:28;9.10;99.90
34829;DHT22;21042;47.620;12.188;2023-05-20T01:24:55;9.10;99.90
34829;DHT22;21042;47.620;12.188;2023-05-20T01:27:24;9.10;99.90
34829;DHT22;21042;47.620;12.188;2023-05-20T01:29:52;9.10;99.90
34829;DHT22;21042;47.620;12.188;2023-05-20T01:32:22;9.10;99.90
34829;DHT22;21042;47.620;12.188;2023-05-20T01:34:51;9.20;99.90
34829;DHT22;21042;47.620;12.188;2023-05-20T01:37:19;9.20;99.90
34829;DHT22;21042;47.620;12.188;2023-05-20T01:39:48;9.20;99.90
34829;DHT22;21042;47.620;12.188;2023-05-20T01:42:18;9.30;99.90
34829;DHT22;21042;47.620;12.188;2023-05-20T01:44:47;9.30;99.90
34829;DHT22;21042;47.620;12.188;2023-05-20T01:47:13;9.30;99.90
34829;DHT22;21042;47.620;12.188;2023-05-20T01:49:40;9.30;99.90
34829;DHT22;21042;47.620;12.188;2023-05-20T01:52:07;9.40;99.90
34829;DHT22;21042;47.620;12.188;2023-05-20T01:54:34;9.30;99.90
34829;DHT22;21042;47.620;12.188;2023-05-20T01:57:01;9.20;99.90
34829;DHT22;21042;47.620;12.188;2023-05-20T01:59:28;9.00;99.90
34829;DHT22;21042;47.620;12.188;2023-05-20T02:01:55;8.90;99.90
34829;DHT22;21042;47.620;12.188;2023-05-20T02:04:22;8.80;99.90
34829;DHT22;21042;47.620;12.188;2023-05-20T02:06:49;8.70;99.90
34829;DHT22;21042;47.620;12.188;2023-05-20T02:09:17;8.70;99.90
34829;DHT22;21042;47.620;12.188;2023-05-20T02:11:44;8.70;99.90
34829;DHT22;21042;47.620;12.188;2023-05-20T02:14:11;8.70;99.90
34829;DHT22;21042;47.620;12.188;2023-05-20T02:16:37;8.70;99.90
34829;DHT22;21042;47.620;12.188;2023-05-20T02:19:04;8.70;99.90
34829;DHT22;21042;47.620;12.188;2023-05-20T02:21:31;8.70;99.90
34829;DHT22;21042;47.620;12.188;2023-05-20T02:23:58;8.80;99.90
34829;DHT22;21042;47.620;12.188;2023-05-20T02:26:25;8.80;99.90
34829;DHT22;21042;47.620;12.188;2023-05-20T02:28:52;8.90;99.90
34829;DHT22;21042;47.620;12.188;2023-05-20T02:31:20;9.00;99.90
34829;DHT22;21042;47.620;12.188;2023-05-20T02:33:47;9.10;99.90
34829;DHT22;21042;47.620;12.188;2023-05-20T02:36:14;9.10;99.90
34829;DHT22;21042;47.620;12.188;2023-05-20T02:38:43;9.10;99.90
34829;DHT22;21042;47.620;12.188;2023-05-20T02:41:10;9.10;99.90
34829;DHT22;21042;47.620;12.188;2023-05-20T02:43:37;9.10;99.90
34829;DHT22;21042;47.620;12.188;2023-05-20T02:46:04;9.00;99.90
34829;DHT22;21042;47.620;12.188;2023-05-20T02:48:31;8.90;99.90
34829;DHT22;21042;47.620;12.188;2023-05-20T02:50:58;8.80;99.90
34829;DHT22;21042;47.620;12.188;2023-05-20T02:53:25;8.70;99.90
34829;DHT22;21042;47.620;12.188;2023-05-20T02:55:52;8.70;99.90
34829;DHT22;21042;47.620;12.188;2023-05-20T02:58:19;8.70;99.90
34829;DHT22;21042;47.620;12.188;2023-05-20T03:00:52;8.70;99.90
34829;DHT22;21042;47.620;12.188;2023-05-20T03:03:19;8.80;99.90
34829;DHT22;21042;47.620;12.188;2023-05-20T03:05:46;8.80;99.90
34829;DHT22;21042;47.620;12.188;2023-05-20T03:08:12;8.90;99.90
34829;DHT22;21042;47.620;12.188;2023-05-20T03:10:40;8.90;99.90
34829;DHT22;21042;47.620;12.188;2023-05-20T03:13:07;8.90;99.90
34829;DHT22;21042;47.620;12.188;2023-05-20T03:15:39;8.90;99.90
34829;DHT22;21042;47.620;12.188;2023-05-20T03:18:07;9.00;99.90
34829;DHT22;21042;47.620;12.188;2023-05-20T03:20:35;9.00;99.90
34829;DHT22;21042;47.620;12.188;2023-05-20T03:23:03;8.90;99.90
34829;DHT22;21042;47.620;12.188;2023-05-20T03:25:30;8.90;99.90
34829;DHT22;21042;47.620;12.188;2023-05-20T03:27:57;8.90;99.90
34829;DHT22;21042;47.620;12.188;2023-05-20T03:30:26;8.90;99.90
34829;DHT22;21042;47.620;12.188;2023-05-20T03:32:54;8.90;99.90
34829;DHT22;21042;47.620;12.188;2023-05-20T03:35:24;8.90;99.90
34829;DHT22;21042;47.620;12.188;2023-05-20T03:37:51;8.90;99.90
34829;DHT22;21042;47.620;12.188;2023-05-20T03:40:21;8.80;99.90
34829;DHT22;21042;47.620;12.188;2023-05-20T03:42:48;8.80;99.90
34829;DHT22;21042;47.620;12.188;2023-05-20T03:45:18;8.80;99.90
34829;DHT22;21042;47.620;12.188;2023-05-20T03:48:01;8.90;99.90
34829;DHT22;21042;47.620;12.188;2023-05-20T03:50:31;8.90;99.90
34829;DHT22;21042;47.620;12.188;2023-05-20T03:52:59;8.90;99.90
34829;DHT22;21042;47.620;12.188;2023-05-20T03:55:30;8.90;99.90
34829;DHT22;21042;47.620;12.188;2023-05-20T03:57:58;8.90;99.90
34829;DHT22;21042;47.620;12.188;2023-05-20T04:00:24;8.90;99.90
34829;DHT22;21042;47.620;12.188;2023-05-20T04:02:51;9.00;99.90
34829;DHT22;21042;47.620;12.188;2023-05-20T04:05:19;9.00;99.90
34829;DHT22;21042;47.620;12.188;2023-05-20T04:07:46;9.10;99.90
34829;DHT22;21042;47.620;12.188;2023-05-20T04:10:14;9.10;99.90
34829;DHT22;21042;47.620;12.188;2023-05-20T04:12:40;9.20;99.90
34829;DHT22;21042;47.620;12.188;2023-05-20T04:15:08;9.10;99.90
34829;DHT22;21042;47.620;12.188;2023-05-20T04:17:47;9.20;99.90
34829;DHT22;21042;47.620;12.188;2023-05-20T04:20:14;9.30;99.90
34829;DHT22;21042;47.620;12.188;2023-05-20T04:22:41;9.40;99.90
34829;DHT22;21042;47.620;12.188;2023-05-20T04:25:08;9.40;99.90
34829;DHT22;21042;47.620;12.188;2023-05-20T04:27:35;9.50;99.90
34829;DHT22;21042;47.620;12.188;2023-05-20T04:30:06;9.50;99.90
34829;DHT22;21042;47.620;12.188;2023-05-20T04:32:37;9.40;99.90
34829;DHT22;21042;47.620;12.188;2023-05-20T04:35:05;9.40;99.90
34829;DHT22;21042;47.620;12.188;2023-05-20T04:37:39;9.40;99.90
34829;DHT22;21042;47.620;12.188;2023-05-20T04:40:08;9.40;99.90
34829;DHT22;21042;47.620;12.188;2023-05-20T04:42:35;9.50;99.90
34829;DHT22;21042;47.620;12.188;2023-05-20T04:45:04;9.60;99.90
34829;DHT22;21042;47.620;12.188;2023-05-20T04:47:33;9.70;99.90
34829;DHT22;21042;47.620;12.188;2023-05-20T04:50:09;9.70;99.90
34829;DHT22;21042;47.620;12.188;2023-05-20T04:52:39;9.90;99.90
34829;DHT22;21042;47.620;12.188;2023-05-20T04:55:08;10.00;99.90
34829;DHT22;21042;47.620;12.188;2023-05-20T04:57:36;10.20;99.90
34829;DHT22;21042;47.620;12.188;2023-05-20T05:00:06;10.30;99.90
34829;DHT22;21042;47.620;12.188;2023-05-20T05:02:34;10.50;99.90
34829;DHT22;21042;47.620;12.188;2023-05-20T05:05:01;10.70;99.90
34829;DHT22;21042;47.620;12.188;2023-05-20T05:07:29;10.90;99.90
34829;DHT22;21042;47.620;12.188;2023-05-20T05:09:55;11.10;99.90
34829;DHT22;21042;47.620;12.188;2023-05-20T05:12:22;11.20;99.90
34829;DHT22;21042;47.620;12.188;2023-05-20T05:14:49;11.30;99.90
34829;DHT22;21042;47.620;12.188;2023-05-20T05:17:16;11.40;99.90
34829;DHT22;21042;47.620;12.188;2023-05-20T05:19:43;11.60;99.90
34829;DHT22;21042;47.620;12.188;2023-05-20T05:22:10;11.60;99.90
34829;DHT22;21042;47.620;12.188;2023-05-20T05:24:38;11.60;99.90
34829;DHT22;21042;47.620;12.188;2023-05-20T05:27:05;11.50;99.90
34829;DHT22;21042;47.620;12.188;2023-05-20T05:29:32;11.60;99.90
34829;DHT22;21042;47.620;12.188;2023-05-20T05:31:58;11.60;99.90
34829;DHT22;21042;47.620;12.188;2023-05-20T05:34:25;11.70;99.90
34829;DHT22;21042;47.620;12.188;2023-05-20T05:36:52;11.70;99.90
34829;DHT22;21042;47.620;12.188;2023-05-20T05:39:20;11.80;99.90
34829;DHT22;21042;47.620;12.188;2023-05-20T05:41:47;11.80;99.90
34829;DHT22;21042;47.620;12.188;2023-05-20T05:44:13;11.80;99.90
34829;DHT22;21042;47.620;12.188;2023-05-20T05:46:41;11.90;99.90
34829;DHT22;21042;47.620;12.188;2023-05-20T05:49:08;11.90;99.90
34829;DHT22;21042;47.620;12.188;2023-05-20T05:51:35;12.00;99.90
34829;DHT22;21042;47.620;12.188;2023-05-20T05:54:04;12.10;99.90
34829;DHT22;21042;47.620;12.188;2023-05-20T05:56:31;12.20;99.90
34829;DHT22;21042;47.620;12.188;2023-05-20T05:58:58;12.20;99.90
34829;DHT22;21042;47.620;12.188;2023-05-20T06:01:25;12.20;99.90
34829;DHT22;21042;47.620;12.188;2023-05-20T06:03:52;12.20;99.90
34829;DHT22;21042;47.620;12.188;2023-05-20T06:06:19;12.20;99.90
34829;DHT22;21042;47.620;12.188;2023-05-20T06:08:47;12.20;99.90
34829;DHT22;21042;47.620;12.188;2023-05-20T06:11:14;12.30;99.90
34829;DHT22;21042;47.620;12.188;2023-05-20T06:13:41;12.40;99.90
34829;DHT22;21042;47.620;12.188;2023-05-20T06:16:08;12.50;99.90
34829;DHT22;21042;47.620;12.188;2023-05-20T06:18:35;12.60;99.90
34829;DHT22;21042;47.620;12.188;2023-05-20T06:21:03;12.70;99.90
34829;DHT22;21042;47.620;12.188;2023-05-20T06:23:31;12.80;99.90
34829;DHT22;21042;47.620;12.188;2023-05-20T06:26:00;12.90;99.90
34829;DHT22;21042;47.620;12.188;2023-05-20T06:28:29;12.90;99.90
34829;DHT22;21042;47.620;12.188;2023-05-20T06:30:56;13.10;99.90
34829;DHT22;21042;47.620;12.188;2023-05-20T06:33:25;13.10;99.90
34829;DHT22;21042;47.620;12.188;2023-05-20T06:35:56;13.20;99.90
34829;DHT22;21042;47.620;12.188;2023-05-20T06:38:24;13.30;99.90
34829;DHT22;21042;47.620;12.188;2023-05-20T06:40:50;13.30;99.90
34829;DHT22;21042;47.620;12.188;2023-05-20T06:43:18;13.40;99.90
34829;DHT22;21042;47.620;12.188;2023-05-20T06:46:20;13.60;99.90
34829;DHT22;21042;47.620;12.188;2023-05-20T06:48:53;13.60;99.90
34829;DHT22;21042;47.620;12.188;2023-05-20T06:51:20;13.80;99.90
34829;DHT22;21042;47.620;12.188;2023-05-20T06:53:48;13.90;99.90
34829;DHT22;21042;47.620;12.188;2023-05-20T06:56:15;14.00;99.90
34829;DHT22;21042;47.620;12.188;2023-05-20T06:58:42;14.10;99.90
34829;DHT22;21042;47.620;12.188;2023-05-20T07:01:09;14.20;99.90
34829;DHT22;21042;47.620;12.188;2023-05-20T07:03:37;14.30;99.90
34829;DHT22;21042;47.620;12.188;2023-05-20T07:06:04;14.40;99.90
34829;DHT22;21042;47.620;12.188;2023-05-20T07:08:31;14.40;99.90
34829;DHT22;21042;47.620;12.188;2023-05-20T07:10:58;14.50;99.90
34829;DHT22;21042;47.620;12.188;2023-05-20T07:13:25;14.50;99.90
34829;DHT22;21042;47.620;12.188;2023-05-20T07:15:52;14.60;99.90
34829;DHT22;21042;47.620;12.188;2023-05-20T07:18:18;14.80;99.90
34829;DHT22;21042;47.620;12.188;2023-05-20T07:20:51;15.20;99.90
34829;DHT22;21042;47.620;12.188;2023-05-20T07:23:38;15.40;99.90
34829;DHT22;21042;47.620;12.188;2023-05-20T07:26:05;15.50;99.90
34829;DHT22;21042;47.620;12.188;2023-05-20T07:28:32;15.60;99.90
34829;DHT22;21042;47.620;12.188;2023-05-20T07:31:00;16.00;99.90
34829;DHT22;21042;47.620;12.188;2023-05-20T07:33:28;16.30;99.90
34829;DHT22;21042;47.620;12.188;2023-05-20T07:35:55;16.50;99.90
34829;DHT22;21042;47.620;12.188;2023-05-20T07:38:23;16.60;99.90
34829;DHT22;21042;47.620;12.188;2023-05-20T07:40:55;16.60;99.90
34829;DHT22;21042;47.620;12.188;2023-05-20T07:43:22;16.50;99.90
34829;DHT22;21042;47.620;12.188;2023-05-20T07:45:49;16.70;99.90
34829;DHT22;21042;47.620;12.188;2023-05-20T07:48:16;16.90;99.90
34829;DHT22;21042;47.620;12.188;2023-05-20T07:50:43;17.10;99.90
34829;DHT22;21042;47.620;12.188;2023-05-20T07:53:11;17.20;99.90
34829;DHT22;21042;47.620;12.188;2023-05-20T07:55:38;17.20;99.90
34829;DHT22;21042;47.620;12.188;2023-05-20T07:58:05;16.80;99.90
34829;DHT22;21042;47.620;12.188;2023-05-20T08:00:34;16.70;99.90
34829;DHT22;21042;47.620;12.188;2023-05-20T08:03:04;16.50;99.90
34829;DHT22;21042;47.620;12.188;2023-05-20T08:05:50;16.40;99.90
34829;DHT22;21042;47.620;12.188;2023-05-20T08:08:17;16.30;99.90
34829;DHT22;21042;47.620;12.188;2023-05-20T08:10:52;16.50;99.90
34829;DHT22;21042;47.620;12.188;2023-05-20T08:13:23;16.70;99.90
34829;DHT22;21042;47.620;12.188;2023-05-20T08:15:54;16.80;99.90
34829;DHT22;21042;47.620;12.188;2023-05-20T08:18:23;16.80;99.90
34829;DHT22;21042;47.620;12.188;2023-05-20T08:20:50;16.70;99.90
34829;DHT22;21042;47.620;12.188;2023-05-20T08:23:17;16.80;99.90
34829;DHT22;21042;47.620;12.188;2023-05-20T08:25:43;16.90;99.90
34829;DHT22;21042;47.620;12.188;2023-05-20T08:28:13;17.00;99.90
34829;DHT22;21042;47.620;12.188;2023-05-20T08:30:39;17.20;99.90
34829;DHT22;21042;47.620;12.188;2023-05-20T08:33:07;17.60;99.90
34829;DHT22;21042;47.620;12.188;2023-05-20T08:35:34;17.80;99.90
34829;DHT22;21042;47.620;12.188;2023-05-20T08:38:01;18.00;99.90
34829;DHT22;21042;47.620;12.188;2023-05-20T08:40:28;18.20;99.90
34829;DHT22;21042;47.620;12.188;2023-05-20T08:42:55;18.00;99.90
34829;DHT22;21042;47.620;12.188;2023-05-20T08:45:24;18.00;99.90
34829;DHT22;21042;47.620;12.188;2023-05-20T08:47:59;18.10;99.90
34829;DHT22;21042;47.620;12.188;2023-05-20T08:50:26;18.30;99.90
34829;DHT22;21042;47.620;12.188;2023-05-20T08:52:53;18.50;99.90
34829;DHT22;21042;47.620;12.188;2023-05-20T08:55:42;18.50;99.90
34829;DHT22;21042;47.620;12.188;2023-05-20T08:58:09;18.80;99.90
34829;DHT22;21042;47.620;12.188;2023-05-20T09:00:36;19.30;99.90
34829;DHT22;21042;47.620;12.188;2023-05-20T09:03:04;19.50;99.90
34829;DHT22;21042;47.620;12.188;2023-05-20T09:05:30;19.50;99.90
34829;DHT22;21042;47.620;12.188;2023-05-20T09:08:06;19.50;99.90
34829;DHT22;21042;47.620;12.188;2023-05-20T09:10:33;19.70;99.90
34829;DHT22;21042;47.620;12.188;2023-05-20T09:13:00;19.90;99.90
34829;DHT22;21042;47.620;12.188;2023-05-20T09:15:31;20.00;99.90
34829;DHT22;21042;47.620;12.188;2023-05-20T09:17:59;19.90;99.90
34829;DHT22;21042;47.620;12.188;2023-05-20T09:20:28;19.90;99.90
34829;DHT22;21042;47.620;12.188;2023-05-20T09:23:00;20.10;99.90
34829;DHT22;21042;47.620;12.188;2023-05-20T09:25:27;20.30;99.90
34829;DHT22;21042;47.620;12.188;2023-05-20T09:27:55;20.50;99.90
34829;DHT22;21042;47.620;12.188;2023-05-20T09:30:23;21.00;99.90
34829;DHT22;21042;47.620;12.188;2023-05-20T09:32:57;21.10;99.90
34829;DHT22;21042;47.620;12.188;2023-05-20T09:35:24;21.20;99.90
34829;DHT22;21042;47.620;12.188;2023-05-20T09:37:56;21.30;99.90
34829;DHT22;21042;47.620;12.188;2023-05-20T09:40:24;21.30;99.90
34829;DHT22;21042;47.620;12.188;2023-05-20T09:43:05;21.10;99.90
34829;DHT22;21042;47.620;12.188;2023-05-20T09:45:37;20.80;99.90
34829;DHT22;21042;47.620;12.188;2023-05-20T09:48:04;20.40;99.90
34829;DHT22;21042;47.620;12.188;2023-05-20T09:50:31;20.30;99.90
34829;DHT22;21042;47.620;12.188;2023-05-20T09:53:00;20.10;99.90
34829;DHT22;21042;47.620;12.188;2023-05-20T09:55:28;19.90;99.90
34829;DHT22;21042;47.620;12.188;2023-05-20T09:57:58;19.80;99.90
34829;DHT22;21042;47.620;12.188;2023-05-20T10:00:27;19.60;99.90
34829;DHT22;21042;47.620;12.188;2023-05-20T10:02:54;19.50;99.90
34829;DHT22;21042;47.620;12.188;2023-05-20T10:05:29;19.50;99.90
34829;DHT22;21042;47.620;12.188;2023-05-20T10:14:08;19.90;99.90
34829;DHT22;21042;47.620;12.188;2023-05-20T10:19:31;20.00;99.90
34829;DHT22;21042;47.620;12.188;2023-05-20T10:22:04;20.00;99.90
34829;DHT22;21042;47.620;12.188;2023-05-20T10:24:36;20.30;99.90
34829;DHT22;21042;47.620;12.188;2023-05-20T10:27:10;20.50;99.90
34829;DHT22;21042;47.620;12.188;2023-05-20T10:29:50;20.70;99.90
34829;DHT22;21042;47.620;12.188;2023-05-20T10:32:28;20.80;99.90
34829;DHT22;21042;47.620;12.188;2023-05-20T10:35:06;20.70;99.90
34829;DHT22;21042;47.620;12.188;2023-05-20T10:37:44;20.60;99.90
34829;DHT22;21042;47.620;12.188;2023-05-20T10:40:13;20.40;99.90
34829;DHT22;21042;47.620;12.188;2023-05-20T10:42:42;20.40;99.90
34829;DHT22;21042;47.620;12.188;2023-05-20T10:45:09;20.60;99.90
34829;DHT22;21042;47.620;12.188;2023-05-20T10:47:41;20.70;99.90
34829;DHT22;21042;47.620;12.188;2023-05-20T10:50:24;20.90;99.90
34829;DHT22;21042;47.620;12.188;2023-05-20T10:52:52;21.20;99.90
34829;DHT22;21042;47.620;12.188;2023-05-20T10:55:20;21.40;99.90
34829;DHT22;21042;47.620;12.188;2023-05-20T10:57:47;21.50;99.90
34829;DHT22;21042;47.620;12.188;2023-05-20T11:00:14;21.50;99.90
34829;DHT22;21042;47.620;12.188;2023-05-20T11:02:42;21.70;99.90
34829;DHT22;21042;47.620;12.188;2023-05-20T11:05:10;21.70;99.90
34829;DHT22;21042;47.620;12.188;2023-05-20T11:07:38;21.70;99.90
34829;DHT22;21042;47.620;12.188;2023-05-20T11:10:07;21.90;99.90
34829;DHT22;21042;47.620;12.188;2023-05-20T11:12:35;22.00;99.90
34829;DHT22;21042;47.620;12.188;2023-05-20T11:15:02;22.30;99.90
34829;DHT22;21042;47.620;12.188;2023-05-20T11:17:29;22.40;99.90
34829;DHT22;21042;47.620;12.188;2023-05-20T11:19:56;22.60;99.90
34829;DHT22;21042;47.620;12.188;2023-05-20T11:22:26;22.80;99.90
34829;DHT22;21042;47.620;12.188;2023-05-20T11:24:53;23.10;99.90
34829;DHT22;21042;47.620;12.188;2023-05-20T11:27:19;23.10;99.90
34829;DHT22;21042;47.620;12.188;2023-05-20T11:29:49;22.90;99.90
34829;DHT22;21042;47.620;12.188;2023-05-20T11:32:24;22.70;99.90
34829;DHT22;21042;47.620;12.188;2023-05-20T11:34:52;22.40;99.90
34829;DHT22;21042;47.620;12.188;2023-05-20T11:37:19;22.40;99.90
34829;DHT22;21042;47.620;12.188;2023-05-20T11:39:47;22.60;99.90
34829;DHT22;21042;47.620;12.188;2023-05-20T11:42:14;23.20;99.90
34829;DHT22;21042;47.620;12.188;2023-05-20T11:44:45;23.60;99.90
34829;DHT22;21042;47.620;12.188;2023-05-20T11:47:12;24.10;99.90
34829;DHT22;21042;47.620;12.188;2023-05-20T11:49:39;24.30;99.90
34829;DHT22;21042;47.620;12.188;2023-05-20T11:52:08;24.40;99.30
34829;DHT22;21042;47.620;12.188;2023-05-20T11:54:35;24.60;99.30
34829;DHT22;21042;47.620;12.188;2023-05-20T11:57:02;25.00;97.90
34829;DHT22;21042;47.620;12.188;2023-05-20T11:59:32;25.30;97.30
34829;DHT22;21042;47.620;12.188;2023-05-20T12:01:59;25.40;96.20
34829;DHT22;21042;47.620;12.188;2023-05-20T12:04:26;25.60;94.90
34829;DHT22;21042;47.620;12.188;2023-05-20T12:06:53;25.90;95.90
34829;DHT22;21042;47.620;12.188;2023-05-20T12:09:21;26.10;96.40
34829;DHT22;21042;47.620;12.188;2023-05-20T12:11:48;26.20;95.60
34829;DHT22;21042;47.620;12.188;2023-05-20T12:14:14;26.10;94.20
34829;DHT22;21042;47.620;12.188;2023-05-20T12:16:41;25.70;91.10
34829;DHT22;21042;47.620;12.188;2023-05-20T12:19:08;25.10;91.30
34829;DHT22;21042;47.620;12.188;2023-05-20T12:21:35;24.50;90.90
34829;DHT22;21042;47.620;12.188;2023-05-20T12:24:01;24.00;90.60
34829;DHT22;21042;47.620;12.188;2023-05-20T12:26:30;23.60;90.90
34829;DHT22;21042;47.620;12.188;2023-05-20T12:28:58;23.50;87.70
34829;DHT22;21042;47.620;12.188;2023-05-20T12:31:25;23.70;87.90
34829;DHT22;21042;47.620;12.188;2023-05-20T12:33:52;24.00;90.10
34829;DHT22;21042;47.620;12.188;2023-05-20T12:36:18;24.40;91.60
34829;DHT22;21042;47.620;12.188;2023-05-20T12:38:45;24.80;90.10
34829;DHT22;21042;47.620;12.188;2023-05-20T12:41:12;25.00;88.50
34829;DHT22;21042;47.620;12.188;2023-05-20T12:43:39;25.10;87.50
34829;DHT22;21042;47.620;12.188;2023-05-20T12:46:06;25.30;80.90
34829;DHT22;21042;47.620;12.188;2023-05-20T12:48:33;25.10;79.90
34829;DHT22;21042;47.620;12.188;2023-05-20T12:50:59;25.20;76.90
34829;DHT22;21042;47.620;12.188;2023-05-20T12:53:26;25.50;78.10
34829;DHT22;21042;47.620;12.188;2023-05-20T12:55:53;25.90;82.10
34829;DHT22;21042;47.620;12.188;2023-05-20T12:58:20;26.60;80.40
34829;DHT22;21042;47.620;12.188;2023-05-20T13:00:47;26.60;71.10
34829;DHT22;21042;47.620;12.188;2023-05-20T13:03:14;26.00;69.10
34829;DHT22;21042;47.620;12.188;2023-05-20T13:05:41;25.50;74.00
34829;DHT22;21042;47.620;12.188;2023-05-20T13:08:07;25.80;73.20
34829;DHT22;21042;47.620;12.188;2023-05-20T13:10:35;25.50;74.60
34829;DHT22;21042;47.620;12.188;2023-05-20T13:13:03;25.00;69.80
34829;DHT22;21042;47.620;12.188;2023-05-20T13:15:30;24.80;72.90
34829;DHT22;21042;47.620;12.188;2023-05-20T13:17:59;24.70;70.80
34829;DHT22;21042;47.620;12.188;2023-05-20T13:20:28;24.70;71.80
34829;DHT22;21042;47.620;12.188;2023-05-20T13:22:54;24.70;68.80
34829;DHT22;21042;47.620;12.188;2023-05-20T13:25:21;24.80;72.50
34829;DHT22;21042;47.620;12.188;2023-05-20T13:27:48;24.90;72.80
34829;DHT22;21042;47.620;12.188;2023-05-20T13:30:15;25.20;72.70
34829;DHT22;21042;47.620;12.188;2023-05-20T13:32:41;25.40;70.20
34829;DHT22;21042;47.620;12.188;2023-05-20T13:35:08;25.60;69.00
34829;DHT22;21042;47.620;12.188;2023-05-20T13:37:35;25.70;70.10
34829;DHT22;21042;47.620;12.188;2023-05-20T13:40:02;25.50;69.50
34829;DHT22;21042;47.620;12.188;2023-05-20T13:42:28;25.90;70.40
34829;DHT22;21042;47.620;12.188;2023-05-20T13:44:55;26.40;70.80
34829;DHT22;21042;47.620;12.188;2023-05-20T13:47:22;26.60;67.50
34829;DHT22;21042;47.620;12.188;2023-05-20T13:49:49;26.10;64.70
34829;DHT22;21042;47.620;12.188;2023-05-20T13:52:15;25.80;70.30
34829;DHT22;21042;47.620;12.188;2023-05-20T13:54:42;25.60;69.00
34829;DHT22;21042;47.620;12.188;2023-05-20T13:57:12;25.30;71.10
34829;DHT22;21042;47.620;12.188;2023-05-20T13:59:39;25.10;69.30
34829;DHT22;21042;47.620;12.188;2023-05-20T14:02:06;25.40;69.70
34829;DHT22;21042;47.620;12.188;2023-05-20T14:04:33;25.60;66.80
34829;DHT22;21042;47.620;12.188;2023-05-20T14:07:05;25.70;66.00
34829;DHT22;21042;47.620;12.188;2023-05-20T14:09:35;25.70;65.60
34829;DHT22;21042;47.620;12.188;2023-05-20T14:12:02;26.30;67.90
34829;DHT22;21042;47.620;12.188;2023-05-20T14:14:29;26.70;64.30
34829;DHT22;21042;47.620;12.188;2023-05-20T14:16:56;26.90;62.90
34829;DHT22;21042;47.620;12.188;2023-05-20T14:19:23;26.80;62.90
34829;DHT22;21042;47.620;12.188;2023-05-20T14:21:49;26.80;63.50
34829;DHT22;21042;47.620;12.188;2023-05-20T14:24:17;26.90;61.50
34829;DHT22;21042;47.620;12.188;2023-05-20T14:26:43;26.90;61.20
34829;DHT22;21042;47.620;12.188;2023-05-20T14:29:10;26.80;62.30
34829;DHT22;21042;47.620;12.188;2023-05-20T14:31:37;26.40;60.20
34829;DHT22;21042;47.620;12.188;2023-05-20T14:34:04;26.60;61.60
34829;DHT22;21042;47.620;12.188;2023-05-20T14:36:31;26.80;65.40
34829;DHT22;21042;47.620;12.188;2023-05-20T14:38:58;26.80;62.60
34829;DHT22;21042;47.620;12.188;2023-05-20T14:41:25;26.20;63.20
34829;DHT22;21042;47.620;12.188;2023-05-20T14:43:52;25.60;65.20
34829;DHT22;21042;47.620;12.188;2023-05-20T14:46:18;25.30;66.30
34829;DHT22;21042;47.620;12.188;2023-05-20T14:48:45;25.40;62.50
34829;DHT22;21042;47.620;12.188;2023-05-20T14:51:12;25.50;61.50
34829;DHT22;21042;47.620;12.188;2023-05-20T14:53:39;25.60;64.60
34829;DHT22;21042;47.620;12.188;2023-05-20T14:56:06;25.50;60.60
34829;DHT22;21042;47.620;12.188;2023-05-20T14:58:33;25.70;62.70
34829;DHT22;21042;47.620;12.188;2023-05-20T15:01:00;26.00;63.10
34829;DHT22;21042;47.620;12.188;2023-05-20T15:03:27;26.20;63.00
34829;DHT22;21042;47.620;12.188;2023-05-20T15:05:54;26.40;66.20
34829;DHT22;21042;47.620;12.188;2023-05-20T15:08:21;26.40;61.50
34829;DHT22;21042;47.620;12.188;2023-05-20T15:10:48;26.40;61.50
34829;DHT22;21042;47.620;12.188;2023-05-20T15:13:15;26.30;60.40
34829;DHT22;21042;47.620;12.188;2023-05-20T15:15:42;26.50;62.60
34829;DHT22;21042;47.620;12.188;2023-05-20T15:18:09;26.10;59.00
34829;DHT22;21042;47.620;12.188;2023-05-20T15:20:37;26.10;62.20
34829;DHT22;21042;47.620;12.188;2023-05-20T15:23:04;25.90;64.50
34829;DHT22;21042;47.620;12.188;2023-05-20T15:25:30;25.50;58.90
34829;DHT22;21042;47.620;12.188;2023-05-20T15:27:57;25.60;60.50
34829;DHT22;21042;47.620;12.188;2023-05-20T15:30:24;25.70;63.50
34829;DHT22;21042;47.620;12.188;2023-05-20T15:32:50;25.80;62.50
34829;DHT22;21042;47.620;12.188;2023-05-20T15:35:17;25.70;62.50